createdAt,value
2023-04-19T00:00:38.299Z,996.99
2023-04-19T00:05:51.980Z,996.98
2023-04-19T00:06:52.157Z,996.97
2023-04-19T00:07:51.855Z,996.98
2023-04-19T00:08:51.737Z,997.01
2023-04-19T00:09:51.656Z,996.95
2023-04-19T00:10:51.582Z,996.99
2023-04-19T00:11:51.493Z,996.99
2023-04-19T00:12:51.610Z,997.00
2023-04-19T00:13:51.330Z,996.97
2023-04-19T00:14:51.259Z,996.97
2023-04-19T00:15:51.169Z,997.00
2023-04-19T00:16:51.152Z,997.01
2023-04-19T00:17:51.019Z,996.98
2023-04-19T00:18:50.938Z,996.96
2023-04-19T00:19:50.837Z,996.95
2023-04-19T00:20:50.759Z,996.96
2023-04-19T00:21:50.677Z,996.93
2023-04-19T00:22:50.845Z,996.95
2023-04-19T00:23:50.533Z,996.97
2023-04-19T00:24:50.433Z,996.94
2023-04-19T00:25:50.351Z,996.96
2023-04-19T00:26:50.320Z,996.90
2023-04-19T00:27:50.188Z,996.92
2023-04-19T00:28:50.107Z,996.94
2023-04-19T00:29:50.026Z,996.90
2023-04-19T00:30:49.960Z,996.91
2023-04-19T00:31:49.858Z,996.90
2023-04-19T00:32:49.814Z,996.88
2023-04-19T00:33:49.698Z,996.91
2023-04-19T00:34:49.613Z,996.90
2023-04-19T00:35:49.532Z,996.92
2023-04-19T00:36:49.452Z,996.95
2023-04-19T00:37:49.368Z,996.91
2023-04-19T00:38:49.292Z,996.85
2023-04-19T00:39:49.273Z,996.88
2023-04-19T00:40:49.124Z,996.91
2023-04-19T00:41:49.044Z,996.92
2023-04-19T00:42:48.961Z,996.89
2023-04-19T00:43:48.881Z,996.86
2023-04-19T00:44:48.823Z,996.88
2023-04-19T00:45:48.773Z,996.89
2023-04-19T00:46:48.641Z,996.87
2023-04-19T00:47:48.582Z,996.85
2023-04-19T00:48:48.470Z,996.89
2023-04-19T00:49:48.412Z,996.85
2023-04-19T00:50:48.315Z,996.85
2023-04-19T00:51:48.231Z,996.88
2023-04-19T00:52:48.555Z,996.85
2023-04-19T00:53:50.683Z,996.84
2023-04-19T04:11:32.078Z,995.71
2023-04-19T04:12:31.980Z,995.73
2023-04-19T04:13:31.894Z,995.72
2023-04-19T04:14:31.824Z,995.74
2023-04-19T04:15:31.733Z,995.75
2023-04-19T04:16:31.773Z,995.75
2023-04-19T04:17:31.760Z,995.72
2023-04-19T04:18:31.489Z,995.72
2023-04-19T04:19:31.403Z,995.70
2023-04-19T04:20:31.323Z,995.74
2023-04-19T04:21:31.236Z,995.73
2023-04-19T04:22:31.195Z,995.72
2023-04-19T04:23:31.074Z,995.75
2023-04-19T04:24:30.990Z,995.77
2023-04-19T04:25:30.911Z,995.74
2023-04-19T04:26:30.839Z,995.76
2023-04-19T04:27:30.978Z,995.77
2023-04-19T04:28:30.674Z,995.78
2023-04-19T04:29:30.588Z,995.80
2023-04-19T04:30:30.510Z,995.80
2023-04-19T04:31:30.637Z,995.85
2023-04-19T04:32:30.394Z,995.80
2023-04-19T04:33:30.266Z,995.82
2023-04-19T04:34:30.585Z,995.85
2023-04-19T04:35:30.146Z,995.80
2023-04-19T04:36:30.115Z,995.79
2023-04-19T04:37:29.942Z,995.81
2023-04-19T04:38:29.866Z,995.80
2023-04-19T04:39:29.779Z,995.79
2023-04-19T04:40:29.696Z,995.84
2023-04-19T04:41:29.618Z,995.78
2023-04-19T04:42:29.584Z,995.79
2023-04-19T04:43:29.672Z,995.78
2023-04-19T04:44:29.465Z,995.77
2023-04-19T04:45:29.396Z,995.77
2023-04-19T04:46:29.205Z,995.75
2023-04-19T04:47:29.957Z,995.81
2023-04-19T04:48:29.038Z,995.76
2023-04-19T04:49:28.982Z,995.75
2023-04-19T04:50:28.878Z,995.72
2023-04-19T04:51:28.807Z,995.73
2023-04-19T04:52:28.709Z,995.72
2023-04-19T04:53:28.631Z,995.75
2023-04-19T04:54:28.551Z,995.75
2023-04-19T04:55:28.464Z,995.76
2023-04-19T04:56:28.411Z,995.75
2023-04-19T04:57:28.299Z,995.77
2023-04-19T04:58:28.224Z,995.77
2023-04-19T04:59:28.154Z,995.80
2023-04-19T05:00:28.076Z,995.76
2023-04-19T05:01:28.015Z,995.76
2023-04-19T05:02:27.993Z,995.74
2023-04-19T05:03:27.854Z,995.73
2023-04-19T05:04:27.823Z,995.72
2023-04-19T05:05:27.653Z,995.70
2023-04-19T05:06:27.554Z,995.69
2023-04-19T05:07:27.474Z,995.69
2023-04-19T05:08:27.390Z,995.70
2023-04-19T05:09:27.308Z,995.71
2023-04-19T05:10:27.233Z,995.70
2023-04-19T05:11:27.144Z,995.73
2023-04-19T05:12:27.476Z,995.71
2023-04-19T05:13:27.286Z,995.70
2023-04-19T05:14:26.899Z,995.67
2023-04-19T05:15:26.835Z,995.69
2023-04-19T05:16:26.772Z,995.67
2023-04-19T05:17:26.691Z,995.69
2023-04-19T05:18:26.571Z,995.71
2023-04-19T05:19:26.497Z,995.68
2023-04-19T05:20:26.406Z,995.70
2023-04-19T05:21:26.323Z,995.73
2023-04-19T05:22:26.247Z,995.73
2023-04-19T05:23:26.178Z,995.74
2023-04-19T05:24:26.528Z,995.73
2023-04-19T05:25:26.018Z,995.72
2023-04-19T05:39:10.460Z,995.56
2023-04-19T05:40:10.420Z,995.53
2023-04-19T05:41:10.274Z,995.51
2023-04-19T05:42:10.192Z,995.49
2023-04-19T05:43:10.113Z,995.49
2023-04-19T05:44:10.042Z,995.46
2023-04-19T05:45:09.951Z,995.49
2023-04-19T05:46:09.941Z,995.50
2023-04-19T05:47:09.801Z,995.50
2023-04-19T05:48:09.755Z,995.45
2023-04-19T05:49:09.633Z,995.45
2023-04-19T05:50:09.545Z,995.41
2023-04-19T05:51:09.500Z,995.40
2023-04-19T05:52:09.390Z,995.39
2023-04-19T05:53:09.300Z,995.40
2023-04-19T05:54:09.220Z,995.40
2023-04-19T05:55:09.169Z,995.44
2023-04-19T05:56:09.057Z,995.44
2023-04-19T05:57:08.971Z,995.39
2023-04-19T05:58:08.917Z,995.41
2023-04-19T05:59:08.819Z,995.43
2023-04-19T06:00:08.743Z,995.47
2023-04-19T06:01:08.682Z,995.52
2023-04-19T06:02:08.757Z,995.57
2023-04-19T06:03:08.777Z,995.60
2023-04-19T06:04:08.537Z,995.58
2023-04-19T06:05:10.203Z,995.58
2023-04-19T06:06:08.339Z,995.58
2023-04-19T06:07:17.480Z,995.52
2023-04-19T06:08:08.096Z,995.56
2023-04-19T06:09:08.010Z,995.53
2023-04-19T06:10:07.940Z,995.56
2023-04-19T06:11:15.849Z,995.57
2023-04-19T06:12:07.765Z,995.57
2023-04-19T06:13:07.675Z,995.56
2023-04-19T06:14:07.596Z,995.50
2023-04-19T06:15:07.521Z,995.49
2023-04-19T06:16:07.470Z,995.50
2023-04-19T06:17:07.354Z,995.49
2023-04-19T06:18:07.334Z,995.54
2023-04-19T06:19:07.190Z,995.54
2023-04-19T06:20:07.116Z,995.56
2023-04-19T06:21:07.032Z,995.57
2023-04-19T06:22:06.947Z,995.57
2023-04-19T06:23:06.868Z,995.57
2023-04-19T06:24:06.792Z,995.59
2023-04-19T06:25:06.907Z,995.61
2023-04-19T06:26:06.637Z,995.56
2023-04-19T06:27:06.585Z,995.61
2023-04-19T06:28:06.481Z,995.63
2023-04-19T06:29:06.693Z,995.65
2023-04-19T06:30:06.325Z,995.63
2023-04-19T06:31:06.248Z,995.59
2023-04-19T06:32:06.145Z,995.57
2023-04-19T06:33:06.065Z,995.61
2023-04-19T06:34:05.984Z,995.60
2023-04-19T06:35:05.904Z,995.60
2023-04-19T06:36:05.828Z,995.60
2023-04-19T06:37:05.742Z,995.58
2023-04-19T06:38:05.665Z,995.59
2023-04-19T06:39:05.589Z,995.58
2023-04-19T06:40:05.504Z,995.62
2023-04-19T06:41:05.427Z,995.60
2023-04-19T06:42:05.347Z,995.63
2023-04-19T06:43:05.893Z,995.60
2023-04-19T06:44:05.180Z,995.62
2023-04-19T06:45:05.300Z,995.63
2023-04-19T06:46:05.088Z,995.62
2023-04-19T06:47:04.950Z,995.63
2023-04-19T06:48:04.891Z,995.62
2023-04-19T06:49:04.829Z,995.64
2023-04-19T06:50:04.948Z,995.64
2023-04-19T06:51:04.619Z,995.61
2023-04-19T06:52:04.557Z,995.57
2023-04-19T06:53:04.997Z,995.61
2023-04-19T06:54:04.381Z,995.60
2023-04-19T06:55:04.300Z,995.57
2023-04-19T06:56:04.253Z,995.57
2023-04-19T06:57:04.141Z,995.57
2023-04-19T06:58:04.414Z,995.55
2023-04-19T06:59:04.002Z,995.54
2023-04-19T07:00:03.900Z,995.55
2023-04-19T07:01:03.845Z,995.59
2023-04-19T07:02:03.943Z,995.60
2023-04-19T07:03:03.776Z,995.59
2023-04-19T07:04:04.011Z,995.57
2023-04-19T07:05:03.501Z,995.55
2023-04-19T07:06:03.424Z,995.54
2023-04-19T07:07:03.340Z,995.53
2023-04-19T07:08:03.267Z,995.53
2023-04-19T07:09:03.178Z,995.56
2023-04-19T07:10:03.109Z,995.49
2023-04-19T07:11:03.031Z,995.53
2023-04-19T07:12:02.960Z,995.51
2023-04-19T07:13:03.145Z,995.50
2023-04-19T07:14:02.787Z,995.50
2023-04-19T07:15:02.880Z,995.47
2023-04-19T07:16:02.664Z,995.46
2023-04-19T07:17:02.588Z,995.46
2023-04-19T07:18:02.482Z,995.46
2023-04-19T07:19:02.405Z,995.43
2023-04-19T07:20:02.299Z,995.44
2023-04-19T07:21:02.225Z,995.41
2023-04-19T07:22:02.142Z,995.44
2023-04-19T07:23:02.067Z,995.39
2023-04-19T07:24:02.007Z,995.41
2023-04-19T07:25:01.908Z,995.40
2023-04-19T07:26:01.820Z,995.40
2023-04-19T07:27:01.762Z,995.38
2023-04-19T07:28:01.669Z,995.40
2023-04-19T07:29:01.748Z,995.42
2023-04-19T07:30:01.566Z,995.39
2023-04-19T07:31:01.477Z,995.37
2023-04-19T07:32:01.391Z,995.30
2023-04-19T07:33:01.290Z,995.32
2023-04-19T07:34:01.182Z,995.29
2023-04-19T07:35:01.102Z,995.30
2023-04-19T07:36:01.302Z,995.33
2023-04-19T07:37:00.946Z,995.29
2023-04-19T07:38:01.205Z,995.28
2023-04-19T07:39:00.782Z,995.27
2023-04-19T07:40:00.707Z,995.28
2023-04-19T07:41:00.636Z,995.28
2023-04-19T07:42:00.694Z,995.26
2023-04-19T07:43:00.472Z,995.30
2023-04-19T07:44:00.388Z,995.28
2023-04-19T07:45:00.307Z,995.24
2023-04-19T07:46:00.316Z,995.26
2023-04-19T07:47:00.273Z,995.26
2023-04-19T07:48:00.095Z,995.22
2023-04-19T07:49:00.473Z,995.28
2023-04-19T07:49:59.911Z,995.29
2023-04-19T07:50:59.825Z,995.30
2023-04-19T07:51:59.753Z,995.27
2023-04-19T07:52:59.676Z,995.30
2023-04-19T07:53:59.588Z,995.25
2023-04-19T07:54:59.513Z,995.25
2023-04-19T07:55:59.428Z,995.23
2023-04-19T07:56:59.556Z,995.23
2023-04-19T07:57:59.273Z,995.21
2023-04-19T07:59:07.387Z,995.23
2023-04-19T07:59:59.108Z,995.19
2023-04-19T08:00:59.143Z,995.19
2023-04-19T08:01:59.431Z,995.17
2023-04-19T08:02:59.137Z,995.16
2023-04-19T08:03:59.088Z,995.14
2023-04-19T08:04:58.776Z,995.09
2023-04-19T08:05:58.681Z,995.08
2023-04-19T08:06:58.555Z,995.08
2023-04-19T08:07:58.475Z,995.10
2023-04-19T08:08:58.399Z,995.12
2023-04-19T08:09:58.534Z,995.11
2023-04-19T08:11:58.154Z,995.10
2023-04-19T08:13:05.941Z,995.15
2023-04-19T08:14:06.817Z,995.11
2023-04-19T08:15:06.603Z,995.08
2023-04-19T08:17:22.011Z,995.13
2023-04-19T08:17:57.756Z,995.13
2023-04-19T08:18:57.671Z,995.11
2023-04-19T08:19:57.524Z,995.10
2023-04-19T08:20:57.647Z,995.07
2023-04-19T08:21:57.373Z,995.09
2023-04-19T08:22:59.061Z,995.06
2023-04-19T08:23:57.215Z,995.02
2023-04-19T08:24:57.134Z,995.03
2023-04-19T08:25:57.142Z,995.05
2023-04-19T08:26:59.882Z,995.06
2023-04-19T08:27:56.891Z,995.03
2023-04-19T08:28:56.812Z,995.04
2023-04-19T08:29:56.745Z,995.02
2023-04-19T08:30:56.653Z,995.02
2023-04-19T08:31:56.631Z,995.00
2023-04-19T08:32:57.307Z,994.99
2023-04-19T08:33:56.619Z,994.98
2023-04-19T08:40:48.298Z,994.99
2023-04-19T08:41:55.930Z,994.97
2023-04-19T08:42:48.131Z,994.97
2023-04-19T08:43:48.052Z,995.01
2023-04-19T08:45:06.290Z,995.00
2023-04-19T08:45:47.942Z,994.99
2023-04-19T08:46:47.809Z,994.97
2023-04-19T08:47:59.723Z,994.98
2023-04-19T08:48:47.682Z,994.99
2023-04-19T08:49:49.241Z,994.95
2023-04-19T08:51:01.181Z,994.94
2023-04-19T08:51:47.410Z,994.97
2023-04-19T08:52:55.011Z,994.97
2023-04-19T08:53:47.251Z,994.95
2023-04-19T08:54:47.175Z,994.94
2023-04-19T08:56:03.394Z,994.94
2023-04-19T08:56:47.042Z,994.97
2023-04-19T08:57:47.184Z,994.93
2023-04-19T08:59:46.814Z,994.94
2023-04-19T09:00:46.778Z,994.90
2023-04-19T09:01:46.634Z,994.92
2023-04-19T09:02:47.786Z,994.93
2023-04-19T09:04:00.381Z,994.89
2023-04-19T09:04:46.694Z,994.94
2023-04-19T09:05:46.567Z,994.90
2023-04-19T09:06:46.219Z,994.94
2023-04-19T09:07:46.143Z,994.88
2023-04-19T09:08:46.060Z,994.89
2023-04-19T09:10:00.070Z,994.89
2023-04-19T09:10:45.917Z,994.96
2023-04-19T09:11:46.173Z,994.90
2023-04-19T09:12:45.762Z,994.95
2023-04-19T09:13:45.707Z,995.00
2023-04-19T09:14:59.922Z,994.94
2023-04-19T09:15:45.511Z,994.93
2023-04-19T09:16:45.460Z,994.96
2023-04-19T09:17:45.474Z,994.94
2023-04-19T09:18:56.218Z,994.94
2023-04-19T09:19:45.186Z,994.92
2023-04-19T09:20:45.183Z,994.93
2023-04-19T09:21:45.027Z,994.93
2023-04-19T09:22:44.951Z,994.94
2023-04-19T09:23:44.867Z,994.91
2023-04-19T09:26:11.273Z,994.93
2023-04-19T09:26:44.631Z,994.93
2023-04-19T09:27:44.549Z,994.90
2023-04-19T09:28:44.488Z,994.92
2023-04-19T09:29:44.393Z,994.91
2023-04-19T09:30:58.102Z,994.94
2023-04-19T09:31:51.536Z,994.90
2023-04-19T09:32:44.324Z,994.94
2023-04-19T09:33:44.101Z,994.90
2023-04-19T09:34:43.991Z,994.86
2023-04-19T09:35:43.956Z,994.85
2023-04-19T09:36:43.832Z,994.88
2023-04-19T09:39:26.256Z,994.89
2023-04-19T09:40:26.175Z,994.83
2023-04-19T09:41:26.300Z,994.82
2023-04-19T09:42:47.162Z,994.77
2023-04-19T09:43:58.017Z,994.79
2023-04-19T09:45:30.050Z,994.79
2023-04-19T09:46:25.780Z,994.76
2023-04-19T09:47:25.675Z,994.70
2023-04-19T09:48:28.170Z,994.72
2023-04-19T09:49:37.730Z,994.69
2023-04-19T09:50:27.641Z,994.66
2023-04-19T09:51:25.348Z,994.68
2023-04-19T09:52:25.251Z,994.72
2023-04-19T09:53:25.163Z,994.72
2023-04-19T09:54:25.075Z,994.68
2023-04-19T09:55:28.484Z,994.67
2023-04-19T09:56:24.937Z,994.63
2023-04-19T09:57:24.841Z,994.64
2023-04-19T09:58:29.323Z,994.59
2023-04-19T09:59:24.808Z,994.63
2023-04-19T10:00:24.784Z,994.61
2023-04-19T10:01:25.951Z,994.59
2023-04-19T10:02:24.703Z,994.61
2023-04-19T10:03:24.431Z,994.61
2023-04-19T10:04:36.314Z,994.55
2023-04-19T10:05:24.582Z,994.57
2023-04-19T10:07:30.317Z,994.54
2023-04-19T10:08:24.005Z,994.53
2023-04-19T10:09:23.919Z,994.53
2023-04-19T10:10:30.151Z,994.57
2023-04-19T10:11:23.786Z,994.53
2023-04-19T10:14:49.325Z,994.47
2023-04-19T10:16:52.208Z,994.48
2023-04-19T10:17:52.116Z,994.48
2023-04-19T10:18:51.769Z,994.45
2023-04-19T10:19:51.693Z,994.48
2023-04-19T10:20:51.663Z,994.48
2023-04-19T10:21:51.638Z,994.47
2023-04-19T10:22:51.498Z,994.45
2023-04-19T10:23:51.387Z,994.47
2023-04-19T10:24:51.308Z,994.37
2023-04-19T10:25:51.235Z,994.34
2023-04-19T10:26:51.155Z,994.37
2023-04-19T10:27:51.081Z,994.30
2023-04-19T10:28:51.004Z,994.30
2023-04-19T10:29:50.923Z,994.30
2023-04-19T10:30:50.858Z,994.32
2023-04-19T10:31:50.785Z,994.26
2023-04-19T10:32:51.324Z,994.20
2023-04-19T10:33:50.624Z,994.24
2023-04-19T10:34:50.542Z,994.17
2023-04-19T10:35:50.467Z,994.17
2023-04-19T10:36:50.393Z,994.19
2023-04-19T11:11:57.863Z,993.68
2023-04-19T11:12:57.765Z,993.72
2023-04-19T11:13:57.685Z,993.69
2023-04-19T11:14:57.852Z,993.69
2023-04-19T11:15:57.769Z,993.64
2023-04-19T11:16:57.613Z,993.63
2023-04-19T11:18:11.260Z,993.68
2023-04-19T11:18:57.312Z,993.68
2023-04-19T11:19:57.276Z,993.62
2023-04-19T11:20:57.359Z,993.68
2023-04-19T11:21:57.079Z,993.63
2023-04-19T11:22:57.002Z,993.63
2023-04-19T11:23:56.928Z,993.62
2023-04-19T11:24:56.857Z,993.59
2023-04-19T11:25:56.773Z,993.53
2023-04-19T11:26:56.696Z,993.46
2023-04-19T11:27:56.644Z,993.46
2023-04-19T11:28:56.549Z,993.44
2023-04-19T11:29:56.473Z,993.46
2023-04-19T11:30:56.483Z,993.39
2023-04-19T11:31:56.321Z,993.41
2023-04-19T11:32:56.477Z,993.36
2023-04-19T11:33:56.178Z,993.40
2023-04-19T11:34:56.109Z,993.33
2023-04-19T11:35:56.026Z,993.32
2023-04-19T11:36:55.999Z,993.44
2023-04-19T11:37:56.536Z,993.39
2023-04-19T11:38:55.798Z,993.46
2023-04-19T11:39:55.716Z,993.35
2023-04-19T11:40:56.145Z,993.35
2023-04-19T11:41:55.566Z,993.39
2023-04-19T11:42:55.519Z,993.44
2023-04-19T11:43:55.570Z,993.30
2023-04-19T11:44:55.360Z,993.13
2023-04-19T11:45:55.325Z,993.23
2023-04-19T11:46:55.262Z,993.20
2023-04-19T11:47:55.435Z,993.08
2023-04-19T11:48:55.054Z,993.29
2023-04-19T11:49:54.977Z,993.18
2023-04-19T11:50:54.923Z,993.15
2023-04-19T11:51:54.827Z,993.13
2023-04-19T11:52:54.759Z,993.11
2023-04-19T11:53:54.690Z,993.07
2023-04-19T11:54:54.615Z,993.18
2023-04-19T11:55:54.588Z,993.10
2023-04-19T11:56:54.461Z,993.09
2023-04-19T11:57:54.400Z,993.08
2023-04-19T11:58:54.316Z,993.09
2023-04-19T11:59:54.269Z,993.11
2023-04-19T12:00:54.180Z,993.31
2023-04-19T12:01:54.112Z,993.31
2023-04-19T12:02:54.127Z,993.17
2023-04-19T12:03:54.144Z,993.03
2023-04-19T12:04:54.063Z,992.99
2023-04-19T12:05:53.860Z,993.08
2023-04-19T12:06:53.713Z,993.04
2023-04-19T12:07:53.634Z,993.05
2023-04-19T12:08:53.567Z,992.98
2023-04-19T12:09:53.489Z,992.96
2023-04-19T12:10:53.420Z,992.95
2023-04-19T12:11:53.355Z,992.97
2023-04-19T12:12:53.280Z,993.02
2023-04-19T12:13:53.200Z,993.38
2023-04-19T12:14:53.127Z,993.23
2023-04-19T12:15:53.407Z,993.48
2023-04-19T12:16:53.040Z,993.17
2023-04-19T12:17:57.486Z,993.02
2023-04-19T12:18:52.828Z,992.99
2023-04-19T12:19:52.748Z,993.23
2023-04-19T12:20:52.679Z,992.93
2023-04-19T12:21:52.602Z,993.53
2023-04-19T12:22:53.229Z,993.61
2023-04-19T12:23:52.462Z,993.57
2023-04-19T12:24:52.385Z,992.90
2023-04-19T12:25:52.311Z,993.63
2023-04-19T12:26:54.562Z,993.57
2023-04-19T12:27:53.583Z,993.58
2023-04-19T12:28:52.109Z,993.60
2023-04-19T12:29:52.032Z,993.50
2023-04-19T12:30:51.952Z,993.70
2023-04-19T12:31:51.964Z,993.61
2023-04-19T12:32:51.864Z,993.67
2023-04-19T12:34:51.671Z,993.51
2023-04-19T12:35:51.750Z,993.56
2023-04-19T12:36:51.534Z,993.21
2023-04-19T12:37:51.483Z,992.69
2023-04-19T12:38:51.392Z,992.82
2023-04-19T12:39:51.327Z,993.02
2023-04-19T12:40:51.268Z,993.54
2023-04-19T12:41:51.190Z,992.93
2023-04-19T12:42:51.122Z,993.65
2023-04-19T12:43:51.054Z,992.91
2023-04-19T12:44:51.184Z,992.81
2023-04-19T12:45:51.181Z,992.91
2023-04-19T12:46:50.850Z,992.75
2023-04-19T12:47:51.059Z,993.01
2023-04-19T12:48:50.768Z,992.82
2023-04-19T12:49:50.641Z,992.84
2023-04-19T12:50:50.573Z,993.58
2023-04-19T12:51:50.500Z,992.89
2023-04-19T12:52:50.433Z,993.66
2023-04-19T12:53:50.720Z,992.75
2023-04-19T12:54:50.291Z,993.61
2023-04-19T12:55:50.224Z,992.75
2023-04-19T12:56:50.158Z,993.71
2023-04-19T12:57:50.085Z,993.29
2023-04-19T12:58:50.026Z,993.76
2023-04-19T12:59:49.950Z,993.72
2023-04-19T13:00:49.879Z,993.65
2023-04-19T13:01:49.986Z,993.60
2023-04-19T13:02:49.986Z,993.53
2023-04-19T13:03:50.251Z,993.59
2023-04-19T13:04:49.700Z,993.62
2023-04-19T13:05:49.838Z,993.65
2023-04-19T13:06:49.474Z,993.52
2023-04-19T13:08:46.168Z,993.59
2023-04-19T13:09:42.225Z,993.56
2023-04-19T13:10:41.756Z,992.70
2023-04-19T13:11:41.697Z,993.25
2023-04-19T13:12:41.624Z,993.61
2023-04-19T13:13:41.568Z,993.58
2023-04-19T13:14:41.843Z,993.41
2023-04-19T13:15:41.454Z,993.34
2023-04-19T13:16:41.351Z,993.33
2023-04-19T13:17:41.608Z,992.52
2023-04-19T13:18:41.217Z,992.51
2023-04-19T13:19:41.240Z,992.47
2023-04-19T13:20:41.381Z,992.54
2023-04-19T13:21:41.016Z,992.55
2023-04-19T13:22:40.948Z,992.61
2023-04-19T13:23:40.875Z,992.44
2023-04-19T13:24:40.812Z,992.42
2023-04-19T13:25:40.746Z,992.54
2023-04-19T13:26:40.736Z,993.02
2023-04-19T13:27:40.595Z,992.42
2023-04-19T13:28:40.522Z,992.66
2023-04-19T13:29:40.454Z,993.17
2023-04-19T13:30:40.382Z,993.21
2023-04-19T13:31:40.362Z,993.07
2023-04-19T13:32:40.327Z,993.23
2023-04-19T13:33:40.174Z,992.69
2023-04-19T13:34:40.210Z,992.65
2023-04-19T13:35:40.077Z,992.56
2023-04-19T13:36:39.960Z,992.88
2023-04-19T13:37:39.896Z,993.20
2023-04-19T13:38:39.821Z,993.11
2023-04-19T13:39:39.765Z,992.55
2023-04-19T13:40:39.688Z,992.55
2023-04-19T13:41:39.618Z,992.43
2023-04-19T13:42:39.596Z,992.48
2023-04-19T13:43:39.479Z,992.96
2023-04-19T13:44:39.425Z,993.06
2023-04-19T13:45:39.342Z,993.02
2023-04-19T13:46:39.320Z,992.90
2023-04-19T13:47:39.232Z,992.33
2023-04-19T13:48:39.138Z,992.36
2023-04-19T13:49:39.067Z,992.27
2023-04-19T13:50:38.998Z,992.19
2023-04-19T13:51:49.429Z,992.31
2023-04-19T13:52:38.856Z,992.32
2023-04-19T13:53:38.790Z,992.35
2023-04-19T13:54:38.718Z,992.34
2023-04-19T13:55:38.652Z,992.31
2023-04-19T13:56:38.598Z,992.31
2023-04-19T13:57:38.524Z,992.21
2023-04-19T13:58:38.637Z,992.23
2023-04-19T13:59:38.368Z,992.26
2023-04-19T14:00:38.321Z,992.21
2023-04-19T14:01:38.227Z,992.20
2023-04-19T14:02:38.437Z,992.60
2023-04-19T14:03:38.226Z,992.33
2023-04-19T14:04:38.059Z,992.21
2023-04-19T14:05:41.823Z,992.27
2023-04-19T14:06:37.866Z,992.23
2023-04-19T14:33:13.812Z,992.28
2023-04-19T14:34:13.652Z,992.34
2023-04-19T14:35:13.584Z,992.21
2023-04-19T14:36:13.511Z,992.08
2023-04-19T14:37:13.435Z,992.07
2023-04-19T14:38:13.362Z,991.98
2023-04-19T14:39:13.299Z,991.94
2023-04-19T14:40:13.241Z,991.92
2023-04-19T14:41:13.146Z,991.87
2023-04-19T14:42:13.085Z,991.95
2023-04-19T14:43:13.001Z,991.86
2023-04-19T14:44:12.925Z,991.91
2023-04-19T14:45:12.855Z,991.84
2023-04-19T14:46:12.845Z,991.93
2023-04-19T14:47:12.700Z,991.88
2023-04-19T14:48:12.689Z,991.98
2023-04-19T14:49:12.583Z,992.18
2023-04-19T14:50:12.487Z,992.10
2023-04-19T14:51:12.413Z,992.17
2023-04-19T14:52:12.350Z,992.09
2023-04-19T14:53:12.526Z,992.04
2023-04-19T14:54:12.188Z,992.18
2023-04-19T14:55:12.115Z,992.11
2023-04-19T14:56:12.048Z,992.17
2023-04-19T14:57:12.022Z,992.12
2023-04-19T14:58:11.898Z,992.16
2023-04-19T14:59:11.820Z,992.19
2023-04-19T15:00:11.803Z,992.19
2023-04-19T15:01:11.715Z,992.19
2023-04-19T15:02:11.675Z,992.11
2023-04-19T15:03:11.709Z,992.14
2023-04-19T15:04:11.639Z,992.29
2023-04-19T15:08:32.528Z,992.18
2023-04-19T15:09:32.023Z,992.16
2023-04-19T15:10:31.981Z,992.21
2023-04-19T15:11:34.504Z,992.15
2023-04-19T15:12:31.823Z,992.30
2023-04-19T15:13:31.982Z,992.23
2023-04-19T15:14:31.712Z,992.30
2023-04-19T15:15:31.972Z,992.27
2023-04-19T15:16:31.694Z,992.20
2023-04-19T15:17:31.515Z,992.14
2023-04-19T15:19:31.340Z,992.28
2023-04-19T15:20:31.266Z,992.14
2023-04-19T15:21:31.389Z,992.11
2023-04-19T15:22:31.125Z,992.08
2023-04-19T15:23:31.056Z,992.11
2023-04-19T15:24:31.653Z,992.16
2023-04-19T15:25:30.917Z,992.21
2023-04-19T15:26:33.482Z,992.15
2023-04-19T15:27:30.778Z,992.21
2023-04-19T15:28:30.714Z,992.22
2023-04-19T15:29:30.744Z,992.19
2023-04-19T15:30:30.660Z,992.14
2023-04-19T15:31:30.539Z,992.15
2023-04-19T15:32:30.494Z,992.08
2023-04-19T15:34:37.878Z,992.13
2023-04-19T15:35:37.814Z,992.21
2023-04-19T15:39:33.468Z,992.24
2023-04-19T15:40:33.709Z,992.25
2023-04-19T15:41:33.291Z,992.28
2023-04-19T15:42:33.232Z,992.16
2023-04-19T15:43:33.150Z,992.17
2023-04-19T15:44:33.088Z,992.17
2023-04-19T15:45:33.025Z,992.13
2023-04-19T15:46:33.018Z,992.13
2023-04-19T15:47:32.923Z,992.21
2023-04-19T15:48:32.818Z,992.20
2023-04-19T15:49:32.743Z,992.29
2023-04-19T15:50:32.664Z,992.23
2023-04-19T15:51:32.608Z,992.19
2023-04-19T15:52:32.537Z,992.14
2023-04-19T15:53:32.458Z,992.11
2023-04-19T15:54:32.389Z,992.11
2023-04-19T15:55:32.352Z,992.13
2023-04-19T15:56:32.251Z,992.08
2023-04-19T15:57:32.178Z,992.11
2023-04-19T15:58:32.108Z,992.08
2023-04-19T15:59:32.048Z,992.09
2023-04-19T16:00:31.993Z,992.16
2023-04-19T16:01:31.933Z,992.12
2023-04-19T16:02:32.125Z,992.10
2023-04-19T16:03:31.863Z,992.13
2023-04-19T16:04:31.753Z,992.14
2023-04-19T16:05:31.623Z,992.17
2023-04-19T16:06:31.551Z,992.14
2023-04-19T16:07:31.879Z,992.09
2023-04-19T16:08:31.463Z,992.15
2023-04-19T16:09:31.340Z,992.27
2023-04-19T16:10:31.269Z,992.15
2023-04-19T16:11:31.267Z,992.30
2023-04-19T16:12:31.135Z,992.17
2023-04-19T16:13:31.628Z,992.24
2023-04-19T16:14:31.094Z,992.27
2023-04-19T16:15:30.918Z,992.11
2023-04-19T16:16:30.994Z,992.24
2023-04-19T16:17:30.888Z,992.32
2023-04-19T16:18:30.761Z,992.33
2023-04-19T16:19:30.645Z,992.25
2023-04-19T16:20:30.600Z,992.25
2023-04-19T16:21:30.522Z,992.27
2023-04-19T16:22:30.704Z,992.28
2023-04-19T16:23:30.380Z,992.22
2023-04-19T16:24:30.289Z,992.22
2023-04-19T16:25:30.239Z,992.25
2023-04-19T16:26:30.175Z,992.17
2023-04-19T16:27:30.243Z,992.21
2023-04-19T16:28:30.027Z,992.21
2023-04-19T16:29:29.934Z,992.26
2023-04-19T16:30:29.882Z,992.20
2023-04-19T16:31:29.855Z,992.22
2023-04-19T16:32:29.869Z,992.30
2023-04-19T16:33:29.666Z,992.19
2023-04-19T16:34:29.815Z,992.25
2023-04-19T16:35:29.518Z,992.28
2023-04-19T16:36:29.580Z,992.34
2023-04-19T16:37:29.467Z,992.27
2023-04-19T16:38:29.893Z,992.27
2023-04-19T16:39:29.225Z,992.18
2023-04-19T16:40:29.222Z,992.20
2023-04-19T16:41:29.130Z,992.14
2023-04-19T16:47:07.833Z,992.14
2023-04-19T16:48:07.793Z,992.15
2023-04-19T16:49:07.663Z,992.16
2023-04-19T16:50:07.591Z,992.13
2023-04-19T16:51:07.514Z,992.19
2023-04-19T16:52:07.434Z,992.17
2023-04-19T16:53:55.252Z,992.11
2023-04-19T16:54:55.209Z,992.10
2023-04-19T16:55:56.469Z,992.13
2023-04-19T16:56:55.014Z,992.10
2023-04-19T17:34:48.698Z,992.15
2023-04-19T17:35:48.597Z,992.19
2023-04-19T17:36:48.517Z,992.11
2023-04-19T17:37:48.439Z,992.13
2023-04-19T17:38:48.360Z,992.12
2023-04-19T17:39:48.281Z,992.11
2023-04-19T17:40:48.196Z,992.13
2023-04-19T17:41:48.128Z,992.10
2023-04-19T17:42:48.291Z,992.09
2023-04-19T17:43:47.979Z,992.11
2023-04-19T17:44:47.880Z,992.04
2023-04-19T17:45:47.799Z,992.09
2023-04-19T17:46:47.800Z,992.08
2023-04-19T17:47:47.679Z,992.16
2023-04-19T17:48:47.561Z,992.11
2023-04-19T17:49:47.481Z,992.15
2023-04-19T17:50:47.414Z,992.12
2023-04-19T17:51:47.327Z,992.14
2023-04-19T17:52:47.244Z,992.10
2023-04-19T17:53:47.181Z,992.09
2023-04-19T17:54:47.084Z,992.14
2023-04-19T17:55:47.010Z,992.13
2023-04-19T17:56:46.920Z,992.18
2023-04-19T17:57:46.844Z,992.16
2023-04-19T17:58:46.774Z,992.17
2023-04-19T17:59:46.686Z,992.17
2023-04-19T18:00:46.605Z,992.18
2023-04-19T18:01:46.556Z,992.18
2023-04-19T18:02:46.628Z,992.18
2023-04-19T18:03:46.567Z,992.16
2023-04-19T18:04:46.443Z,992.21
2023-04-19T18:05:46.211Z,992.21
2023-04-19T18:06:46.145Z,992.18
2023-04-19T18:07:46.048Z,992.23
2023-04-19T18:08:46.077Z,992.18
2023-04-19T18:09:45.916Z,992.19
2023-04-19T18:10:45.815Z,992.17